sensor_id;sensor_type;location;lat;lon;timestamp;temperature;humidity
8172;DHT22;4127;47.908;10.850;2024-01-11T00:00:03;-4.90;99.90
8172;DHT22;4127;47.908;10.850;2024-01-11T00:02:31;-4.60;99.90
8172;DHT22;4127;47.908;10.850;2024-01-11T00:04:58;-4.50;99.90
8172;DHT22;4127;47.908;10.850;2024-01-11T00:07:31;-4.30;99.90
8172;DHT22;4127;47.908;10.850;2024-01-11T00:10:00;-4.30;99.90
8172;DHT22;4127;47.908;10.850;2024-01-11T00:12:33;-4.20;99.90
8172;DHT22;4127;47.908;10.850;2024-01-11T00:15:00;-4.20;99.90
8172;DHT22;4127;47.908;10.850;2024-01-11T00:17:27;-4.20;99.90
8172;DHT22;4127;47.908;10.850;2024-01-11T00:19:54;-4.30;99.90
8172;DHT22;4127;47.908;10.850;2024-01-11T00:22:21;-4.30;99.90
8172;DHT22;4127;47.908;10.850;2024-01-11T00:24:49;-4.30;99.90
8172;DHT22;4127;47.908;10.850;2024-01-11T00:27:15;-4.30;99.90
8172;DHT22;4127;47.908;10.850;2024-01-11T00:29:46;-4.30;99.90
8172;DHT22;4127;47.908;10.850;2024-01-11T00:32:13;-4.30;99.90
8172;DHT22;4127;47.908;10.850;2024-01-11T00:34:40;-4.30;99.90
8172;DHT22;4127;47.908;10.850;2024-01-11T00:37:07;-4.40;99.90
8172;DHT22;4127;47.908;10.850;2024-01-11T00:39:34;-4.40;99.90
8172;DHT22;4127;47.908;10.850;2024-01-11T00:42:01;-4.40;99.90
8172;DHT22;4127;47.908;10.850;2024-01-11T00:44:28;-4.40;99.90
8172;DHT22;4127;47.908;10.850;2024-01-11T00:46:55;-4.40;99.90
8172;DHT22;4127;47.908;10.850;2024-01-11T00:49:23;-4.50;99.90
8172;DHT22;4127;47.908;10.850;2024-01-11T00:51:49;-4.50;99.90
8172;DHT22;4127;47.908;10.850;2024-01-11T00:54:17;-4.50;99.90
8172;DHT22;4127;47.908;10.850;2024-01-11T00:56:44;-4.50;99.90
8172;DHT22;4127;47.908;10.850;2024-01-11T00:59:20;-4.50;99.90
8172;DHT22;4127;47.908;10.850;2024-01-11T01:01:50;-4.40;99.90
8172;DHT22;4127;47.908;10.850;2024-01-11T01:04:17;-4.30;99.90
8172;DHT22;4127;47.908;10.850;2024-01-11T01:06:45;-4.30;99.90
8172;DHT22;4127;47.908;10.850;2024-01-11T01:09:12;-4.30;99.90
8172;DHT22;4127;47.908;10.850;2024-01-11T01:11:40;-4.40;99.90
8172;DHT22;4127;47.908;10.850;2024-01-11T01:14:07;-4.40;99.90
8172;DHT22;4127;47.908;10.850;2024-01-11T01:16:34;-4.60;99.90
8172;DHT22;4127;47.908;10.850;2024-01-11T01:19:01;-4.70;99.90
8172;DHT22;4127;47.908;10.850;2024-01-11T01:21:29;-4.70;99.90
8172;DHT22;4127;47.908;10.850;2024-01-11T01:23:56;-4.70;99.90
8172;DHT22;4127;47.908;10.850;2024-01-11T01:26:24;-4.70;99.90
8172;DHT22;4127;47.908;10.850;2024-01-11T01:28:51;-4.70;99.90
8172;DHT22;4127;47.908;10.850;2024-01-11T01:31:19;-4.70;99.90
8172;DHT22;4127;47.908;10.850;2024-01-11T01:33:45;-4.70;99.90
8172;DHT22;4127;47.908;10.850;2024-01-11T01:36:13;-4.70;99.90
8172;DHT22;4127;47.908;10.850;2024-01-11T01:38:40;-4.70;99.90
8172;DHT22;4127;47.908;10.850;2024-01-11T01:41:07;-4.70;99.90
8172;DHT22;4127;47.908;10.850;2024-01-11T01:43:34;-4.70;99.90
8172;DHT22;4127;47.908;10.850;2024-01-11T01:46:02;-4.70;99.90
8172;DHT22;4127;47.908;10.850;2024-01-11T01:48:35;-4.70;99.90
8172;DHT22;4127;47.908;10.850;2024-01-11T01:51:03;-4.60;99.90
8172;DHT22;4127;47.908;10.850;2024-01-11T01:53:39;-4.50;99.90
8172;DHT22;4127;47.908;10.850;2024-01-11T01:56:08;-4.50;99.90
8172;DHT22;4127;47.908;10.850;2024-01-11T01:58:45;-4.50;99.90
8172;DHT22;4127;47.908;10.850;2024-01-11T02:01:25;-4.50;99.90
8172;DHT22;4127;47.908;10.850;2024-01-11T02:03:54;-4.40;99.90
8172;DHT22;4127;47.908;10.850;2024-01-11T02:06:32;-4.40;99.90
8172;DHT22;4127;47.908;10.850;2024-01-11T02:09:01;-4.40;99.90
8172;DHT22;4127;47.908;10.850;2024-01-11T02:11:31;-4.40;99.90
8172;DHT22;4127;47.908;10.850;2024-01-11T02:14:02;-4.40;99.90
8172;DHT22;4127;47.908;10.850;2024-01-11T02:16:32;-4.40;99.90
8172;DHT22;4127;47.908;10.850;2024-01-11T02:19:00;-4.30;99.90
8172;DHT22;4127;47.908;10.850;2024-01-11T02:21:27;-4.30;99.90
8172;DHT22;4127;47.908;10.850;2024-01-11T02:24:06;-4.20;99.90
8172;DHT22;4127;47.908;10.850;2024-01-11T02:26:37;-4.10;99.90
8172;DHT22;4127;47.908;10.850;2024-01-11T02:29:24;-4.10;99.90
8172;DHT22;4127;47.908;10.850;2024-01-11T02:31:51;-4.00;99.90
8172;DHT22;4127;47.908;10.850;2024-01-11T02:34:19;-4.00;99.90
8172;DHT22;4127;47.908;10.850;2024-01-11T02:36:46;-4.00;99.90
8172;DHT22;4127;47.908;10.850;2024-01-11T02:39:27;-4.10;99.90
8172;DHT22;4127;47.908;10.850;2024-01-11T02:41:56;-4.00;99.90
8172;DHT22;4127;47.908;10.850;2024-01-11T02:44:24;-4.10;99.90
8172;DHT22;4127;47.908;10.850;2024-01-11T02:46:51;-4.20;99.90
8172;DHT22;4127;47.908;10.850;2024-01-11T02:49:18;-4.30;99.90
8172;DHT22;4127;47.908;10.850;2024-01-11T02:51:48;-4.30;99.90
8172;DHT22;4127;47.908;10.850;2024-01-11T02:54:27;-4.30;99.90
8172;DHT22;4127;47.908;10.850;2024-01-11T02:56:58;-4.30;99.90
8172;DHT22;4127;47.908;10.850;2024-01-11T02:59:25;-4.30;99.90
8172;DHT22;4127;47.908;10.850;2024-01-11T03:01:55;-4.30;99.90
8172;DHT22;4127;47.908;10.850;2024-01-11T03:04:22;-4.30;99.90
8172;DHT22;4127;47.908;10.850;2024-01-11T03:06:49;-4.40;99.90
8172;DHT22;4127;47.908;10.850;2024-01-11T03:09:16;-4.40;99.90
8172;DHT22;4127;47.908;10.850;2024-01-11T03:11:47;-4.40;99.90
8172;DHT22;4127;47.908;10.850;2024-01-11T03:14:13;-4.30;99.90
8172;DHT22;4127;47.908;10.850;2024-01-11T03:16:49;-4.30;99.90
8172;DHT22;4127;47.908;10.850;2024-01-11T03:19:19;-4.30;99.90
8172;DHT22;4127;47.908;10.850;2024-01-11T03:21:47;-4.30;99.90
8172;DHT22;4127;47.908;10.850;2024-01-11T03:24:14;-4.10;99.90
8172;DHT22;4127;47.908;10.850;2024-01-11T03:26:41;-4.20;99.90
8172;DHT22;4127;47.908;10.850;2024-01-11T03:29:08;-4.20;99.90
8172;DHT22;4127;47.908;10.850;2024-01-11T03:31:36;-4.20;99.90
8172;DHT22;4127;47.908;10.850;2024-01-11T03:34:04;-4.30;99.90
8172;DHT22;4127;47.908;10.850;2024-01-11T03:36:33;-4.60;99.90
8172;DHT22;4127;47.908;10.850;2024-01-11T03:39:00;-4.70;99.90
8172;DHT22;4127;47.908;10.850;2024-01-11T03:41:28;-4.70;99.90
8172;DHT22;4127;47.908;10.850;2024-01-11T03:43:58;-4.80;99.90
8172;DHT22;4127;47.908;10.850;2024-01-11T03:46:25;-4.90;99.90
8172;DHT22;4127;47.908;10.850;2024-01-11T03:48:52;-5.00;99.90
8172;DHT22;4127;47.908;10.850;2024-01-11T03:51:20;-4.80;99.90
8172;DHT22;4127;47.908;10.850;2024-01-11T03:53:50;-4.50;99.90
8172;DHT22;4127;47.908;10.850;2024-01-11T03:56:17;-4.40;99.90
8172;DHT22;4127;47.908;10.850;2024-01-11T03:58:44;-4.20;99.90
8172;DHT22;4127;47.908;10.850;2024-01-11T04:01:12;-4.10;99.90
8172;DHT22;4127;47.908;10.850;2024-01-11T04:03:39;-4.10;99.90
8172;DHT22;4127;47.908;10.850;2024-01-11T04:06:08;-4.10;99.90
8172;DHT22;4127;47.908;10.850;2024-01-11T04:08:36;-4.00;99.90
8172;DHT22;4127;47.908;10.850;2024-01-11T04:11:03;-4.00;99.90
8172;DHT22;4127;47.908;10.850;2024-01-11T04:13:36;-4.00;99.90
8172;DHT22;4127;47.908;10.850;2024-01-11T04:16:07;-4.10;99.90
8172;DHT22;4127;47.908;10.850;2024-01-11T04:18:39;-4.30;99.90
8172;DHT22;4127;47.908;10.850;2024-01-11T04:21:07;-4.30;99.90
8172;DHT22;4127;47.908;10.850;2024-01-11T04:23:33;-4.20;99.90
8172;DHT22;4127;47.908;10.850;2024-01-11T04:26:01;-4.10;99.90
8172;DHT22;4127;47.908;10.850;2024-01-11T04:28:29;-4.10;99.90
8172;DHT22;4127;47.908;10.850;2024-01-11T04:30:55;-4.00;99.90
8172;DHT22;4127;47.908;10.850;2024-01-11T04:33:23;-4.00;99.90
8172;DHT22;4127;47.908;10.850;2024-01-11T04:35:50;-4.00;99.90
8172;DHT22;4127;47.908;10.850;2024-01-11T04:38:17;-4.00;99.90
8172;DHT22;4127;47.908;10.850;2024-01-11T04:40:45;-4.00;99.90
8172;DHT22;4127;47.908;10.850;2024-01-11T04:43:15;-4.20;99.90
8172;DHT22;4127;47.908;10.850;2024-01-11T04:45:42;-4.50;99.90
8172;DHT22;4127;47.908;10.850;2024-01-11T04:48:09;-4.40;99.90
8172;DHT22;4127;47.908;10.850;2024-01-11T04:50:39;-4.30;99.90
8172;DHT22;4127;47.908;10.850;2024-01-11T04:53:06;-4.30;99.90
8172;DHT22;4127;47.908;10.850;2024-01-11T04:55:35;-4.20;99.90
8172;DHT22;4127;47.908;10.850;2024-01-11T04:58:02;-4.20;99.90
8172;DHT22;4127;47.908;10.850;2024-01-11T05:00:29;-4.10;99.90
8172;DHT22;4127;47.908;10.850;2024-01-11T05:03:05;-4.10;99.90
8172;DHT22;4127;47.908;10.850;2024-01-11T05:05:35;-4.30;99.90
8172;DHT22;4127;47.908;10.850;2024-01-11T05:08:02;-4.50;99.90
8172;DHT22;4127;47.908;10.850;2024-01-11T05:10:32;-4.60;99.90
8172;DHT22;4127;47.908;10.850;2024-01-11T05:12:59;-4.80;99.90
8172;DHT22;4127;47.908;10.850;2024-01-11T05:15:26;-4.60;99.90
8172;DHT22;4127;47.908;10.850;2024-01-11T05:17:55;-4.50;99.90
8172;DHT22;4127;47.908;10.850;2024-01-11T05:20:24;-4.60;99.90
8172;DHT22;4127;47.908;10.850;2024-01-11T05:22:51;-5.00;99.90
8172;DHT22;4127;47.908;10.850;2024-01-11T05:25:18;-5.20;99.90
8172;DHT22;4127;47.908;10.850;2024-01-11T05:27:45;-5.30;99.90
8172;DHT22;4127;47.908;10.850;2024-01-11T05:30:12;-5.40;99.90
8172;DHT22;4127;47.908;10.850;2024-01-11T05:32:39;-5.60;99.90
8172;DHT22;4127;47.908;10.850;2024-01-11T05:35:06;-5.60;99.90
8172;DHT22;4127;47.908;10.850;2024-01-11T05:37:33;-5.40;99.90
8172;DHT22;4127;47.908;10.850;2024-01-11T05:40:00;-5.50;99.90
8172;DHT22;4127;47.908;10.850;2024-01-11T05:42:27;-5.70;99.90
8172;DHT22;4127;47.908;10.850;2024-01-11T05:44:54;-5.80;99.90
8172;DHT22;4127;47.908;10.850;2024-01-11T05:47:21;-5.80;99.90
8172;DHT22;4127;47.908;10.850;2024-01-11T05:49:50;-5.80;99.90
8172;DHT22;4127;47.908;10.850;2024-01-11T05:52:17;-5.80;99.90
8172;DHT22;4127;47.908;10.850;2024-01-11T05:54:44;-5.60;99.90
8172;DHT22;4127;47.908;10.850;2024-01-11T05:57:12;-5.50;99.90
8172;DHT22;4127;47.908;10.850;2024-01-11T05:59:44;-5.40;99.90
8172;DHT22;4127;47.908;10.850;2024-01-11T06:02:14;-5.30;99.90
8172;DHT22;4127;47.908;10.850;2024-01-11T06:04:41;-5.30;99.90
8172;DHT22;4127;47.908;10.850;2024-01-11T06:07:15;-5.30;99.90
8172;DHT22;4127;47.908;10.850;2024-01-11T06:09:42;-5.40;99.90
8172;DHT22;4127;47.908;10.850;2024-01-11T06:12:10;-5.40;99.90
8172;DHT22;4127;47.908;10.850;2024-01-11T06:14:37;-5.50;99.90
8172;DHT22;4127;47.908;10.850;2024-01-11T06:17:04;-5.60;99.90
8172;DHT22;4127;47.908;10.850;2024-01-11T06:19:31;-5.60;99.90
8172;DHT22;4127;47.908;10.850;2024-01-11T06:21:59;-5.60;99.90
8172;DHT22;4127;47.908;10.850;2024-01-11T06:24:26;-5.60;99.90
8172;DHT22;4127;47.908;10.850;2024-01-11T06:26:56;-5.70;99.90
8172;DHT22;4127;47.908;10.850;2024-01-11T06:29:22;-5.70;99.90
8172;DHT22;4127;47.908;10.850;2024-01-11T06:31:49;-5.70;99.90
8172;DHT22;4127;47.908;10.850;2024-01-11T06:34:17;-5.90;99.90
8172;DHT22;4127;47.908;10.850;2024-01-11T06:36:43;-5.90;99.90
8172;DHT22;4127;47.908;10.850;2024-01-11T06:39:11;-6.10;99.90
8172;DHT22;4127;47.908;10.850;2024-01-11T06:41:39;-6.00;99.90
8172;DHT22;4127;47.908;10.850;2024-01-11T06:44:09;-5.80;99.90
8172;DHT22;4127;47.908;10.850;2024-01-11T06:46:36;-5.80;99.90
8172;DHT22;4127;47.908;10.850;2024-01-11T06:49:05;-5.90;99.90
8172;DHT22;4127;47.908;10.850;2024-01-11T06:51:33;-5.80;99.90
8172;DHT22;4127;47.908;10.850;2024-01-11T06:54:00;-5.80;99.90
8172;DHT22;4127;47.908;10.850;2024-01-11T06:56:27;-5.80;99.90
8172;DHT22;4127;47.908;10.850;2024-01-11T06:58:55;-5.60;99.90
8172;DHT22;4127;47.908;10.850;2024-01-11T07:01:24;-5.60;99.90
8172;DHT22;4127;47.908;10.850;2024-01-11T07:03:52;-5.60;99.90
8172;DHT22;4127;47.908;10.850;2024-01-11T07:06:19;-5.60;99.90
8172;DHT22;4127;47.908;10.850;2024-01-11T07:08:47;-5.80;99.90
8172;DHT22;4127;47.908;10.850;2024-01-11T07:11:14;-6.10;99.90
8172;DHT22;4127;47.908;10.850;2024-01-11T07:13:41;-6.10;99.90
8172;DHT22;4127;47.908;10.850;2024-01-11T07:16:07;-6.10;99.90
8172;DHT22;4127;47.908;10.850;2024-01-11T07:18:35;-6.10;99.90
8172;DHT22;4127;47.908;10.850;2024-01-11T07:21:03;-6.10;99.90
8172;DHT22;4127;47.908;10.850;2024-01-11T07:23:33;-6.20;99.90
8172;DHT22;4127;47.908;10.850;2024-01-11T07:26:00;-6.20;99.90
8172;DHT22;4127;47.908;10.850;2024-01-11T07:28:27;-6.20;99.90
8172;DHT22;4127;47.908;10.850;2024-01-11T07:30:54;-6.10;99.90
8172;DHT22;4127;47.908;10.850;2024-01-11T07:33:21;-6.00;99.90
8172;DHT22;4127;47.908;10.850;2024-01-11T07:35:48;-5.90;99.90
8172;DHT22;4127;47.908;10.850;2024-01-11T07:38:15;-5.90;99.90
8172;DHT22;4127;47.908;10.850;2024-01-11T07:40:42;-5.80;99.90
8172;DHT22;4127;47.908;10.850;2024-01-11T07:43:12;-5.80;99.90
8172;DHT22;4127;47.908;10.850;2024-01-11T07:45:40;-5.70;99.90
8172;DHT22;4127;47.908;10.850;2024-01-11T07:48:07;-5.60;99.90
8172;DHT22;4127;47.908;10.850;2024-01-11T07:50:35;-5.60;99.90
8172;DHT22;4127;47.908;10.850;2024-01-11T07:53:05;-5.60;99.90
8172;DHT22;4127;47.908;10.850;2024-01-11T07:55:33;-5.70;99.90
8172;DHT22;4127;47.908;10.850;2024-01-11T07:58:00;-5.60;99.90
8172;DHT22;4127;47.908;10.850;2024-01-11T08:00:30;-5.70;99.90
8172;DHT22;4127;47.908;10.850;2024-01-11T08:03:00;-5.70;99.90
8172;DHT22;4127;47.908;10.850;2024-01-11T08:05:27;-5.80;99.90
8172;DHT22;4127;47.908;10.850;2024-01-11T08:07:54;-5.70;99.90
8172;DHT22;4127;47.908;10.850;2024-01-11T08:10:22;-5.50;99.90
8172;DHT22;4127;47.908;10.850;2024-01-11T08:12:49;-5.30;99.90
8172;DHT22;4127;47.908;10.850;2024-01-11T08:15:16;-5.00;99.90
8172;DHT22;4127;47.908;10.850;2024-01-11T08:17:44;-5.20;99.90
8172;DHT22;4127;47.908;10.850;2024-01-11T08:20:14;-5.30;99.90
8172;DHT22;4127;47.908;10.850;2024-01-11T08:22:42;-5.40;99.90
8172;DHT22;4127;47.908;10.850;2024-01-11T08:25:09;-5.20;99.90
8172;DHT22;4127;47.908;10.850;2024-01-11T08:27:37;-5.00;99.90
8172;DHT22;4127;47.908;10.850;2024-01-11T08:30:05;-4.80;99.90
8172;DHT22;4127;47.908;10.850;2024-01-11T08:32:41;-4.90;99.90
8172;DHT22;4127;47.908;10.850;2024-01-11T08:35:09;-4.70;99.90
8172;DHT22;4127;47.908;10.850;2024-01-11T08:37:37;-5.00;99.90
8172;DHT22;4127;47.908;10.850;2024-01-11T08:40:06;-5.30;99.90
8172;DHT22;4127;47.908;10.850;2024-01-11T08:42:35;-5.20;99.90
8172;DHT22;4127;47.908;10.850;2024-01-11T08:45:04;-4.80;99.90
8172;DHT22;4127;47.908;10.850;2024-01-11T08:47:34;-4.50;99.90
8172;DHT22;4127;47.908;10.850;2024-01-11T08:50:06;-4.30;99.90
8172;DHT22;4127;47.908;10.850;2024-01-11T08:52:33;-4.20;99.90
8172;DHT22;4127;47.908;10.850;2024-01-11T08:55:00;-4.40;99.90
8172;DHT22;4127;47.908;10.850;2024-01-11T08:57:28;-4.50;99.90
8172;DHT22;4127;47.908;10.850;2024-01-11T08:59:58;-4.20;99.90
8172;DHT22;4127;47.908;10.850;2024-01-11T09:02:26;-4.00;99.90
8172;DHT22;4127;47.908;10.850;2024-01-11T09:04:53;-4.50;99.90
8172;DHT22;4127;47.908;10.850;2024-01-11T09:07:20;-5.00;99.90
8172;DHT22;4127;47.908;10.850;2024-01-11T09:09:47;-4.90;99.90
8172;DHT22;4127;47.908;10.850;2024-01-11T09:12:22;-4.50;99.90
8172;DHT22;4127;47.908;10.850;2024-01-11T09:14:49;-4.10;99.90
8172;DHT22;4127;47.908;10.850;2024-01-11T09:17:17;-3.80;99.90
8172;DHT22;4127;47.908;10.850;2024-01-11T09:19:44;-3.60;99.90
8172;DHT22;4127;47.908;10.850;2024-01-11T09:22:11;-3.60;99.90
8172;DHT22;4127;47.908;10.850;2024-01-11T09:24:38;-3.50;99.90
8172;DHT22;4127;47.908;10.850;2024-01-11T09:27:10;-3.40;99.90
8172;DHT22;4127;47.908;10.850;2024-01-11T09:29:44;-3.30;99.90
8172;DHT22;4127;47.908;10.850;2024-01-11T09:32:34;-4.40;99.90
8172;DHT22;4127;47.908;10.850;2024-01-11T09:35:06;-4.80;99.90
8172;DHT22;4127;47.908;10.850;2024-01-11T09:37:33;-5.30;99.90
8172;DHT22;4127;47.908;10.850;2024-01-11T09:40:03;-5.10;99.90
8172;DHT22;4127;47.908;10.850;2024-01-11T09:42:35;-4.90;99.90
8172;DHT22;4127;47.908;10.850;2024-01-11T09:45:13;-4.60;99.90
8172;DHT22;4127;47.908;10.850;2024-01-11T09:47:40;-4.20;99.90
8172;DHT22;4127;47.908;10.850;2024-01-11T09:50:17;-4.00;99.90
8172;DHT22;4127;47.908;10.850;2024-01-11T09:52:47;-4.00;99.90
8172;DHT22;4127;47.908;10.850;2024-01-11T09:55:17;-4.30;99.90
8172;DHT22;4127;47.908;10.850;2024-01-11T09:57:52;-4.80;99.90
8172;DHT22;4127;47.908;10.850;2024-01-11T10:00:24;-5.00;99.90
8172;DHT22;4127;47.908;10.850;2024-01-11T10:02:58;-4.70;99.90
8172;DHT22;4127;47.908;10.850;2024-01-11T10:05:29;-4.40;99.90
8172;DHT22;4127;47.908;10.850;2024-01-11T10:08:17;-4.10;99.90
8172;DHT22;4127;47.908;10.850;2024-01-11T10:10:45;-3.90;99.90
8172;DHT22;4127;47.908;10.850;2024-01-11T10:13:15;-3.60;99.90
8172;DHT22;4127;47.908;10.850;2024-01-11T10:15:53;-3.20;99.90
8172;DHT22;4127;47.908;10.850;2024-01-11T10:18:20;-3.90;99.90
8172;DHT22;4127;47.908;10.850;2024-01-11T10:20:50;-3.80;99.90
8172;DHT22;4127;47.908;10.850;2024-01-11T10:23:19;-3.60;99.90
8172;DHT22;4127;47.908;10.850;2024-01-11T10:25:46;-3.50;99.90
8172;DHT22;4127;47.908;10.850;2024-01-11T10:28:14;-3.10;99.90
8172;DHT22;4127;47.908;10.850;2024-01-11T10:30:41;-2.50;99.90
8172;DHT22;4127;47.908;10.850;2024-01-11T10:33:08;-2.30;99.90
8172;DHT22;4127;47.908;10.850;2024-01-11T10:35:35;-2.60;99.90
8172;DHT22;4127;47.908;10.850;2024-01-11T10:38:07;-2.40;99.90
8172;DHT22;4127;47.908;10.850;2024-01-11T10:40:36;-2.10;99.90
8172;DHT22;4127;47.908;10.850;2024-01-11T10:43:05;-1.90;99.90
8172;DHT22;4127;47.908;10.850;2024-01-11T10:45:41;-1.80;99.90
8172;DHT22;4127;47.908;10.850;2024-01-11T10:48:15;-1.90;99.90
8172;DHT22;4127;47.908;10.850;2024-01-11T10:50:44;-1.70;99.90
8172;DHT22;4127;47.908;10.850;2024-01-11T10:55:49;-1.80;99.90
8172;DHT22;4127;47.908;10.850;2024-01-11T10:58:26;-1.80;99.90
8172;DHT22;4127;47.908;10.850;2024-01-11T11:00:57;-1.70;99.90
8172;DHT22;4127;47.908;10.850;2024-01-11T11:03:26;-2.20;99.90
8172;DHT22;4127;47.908;10.850;2024-01-11T11:05:55;-3.10;99.90
8172;DHT22;4127;47.908;10.850;2024-01-11T11:08:23;-3.40;99.90
8172;DHT22;4127;47.908;10.850;2024-01-11T11:11:01;-3.30;99.90
8172;DHT22;4127;47.908;10.850;2024-01-11T11:13:31;-3.20;99.90
8172;DHT22;4127;47.908;10.850;2024-01-11T11:15:58;-3.20;99.90
8172;DHT22;4127;47.908;10.850;2024-01-11T11:18:28;-3.30;99.90
8172;DHT22;4127;47.908;10.850;2024-01-11T11:20:55;-3.80;99.90
8172;DHT22;4127;47.908;10.850;2024-01-11T11:23:22;-3.80;99.90
8172;DHT22;4127;47.908;10.850;2024-01-11T11:25:50;-3.70;99.90
8172;DHT22;4127;47.908;10.850;2024-01-11T11:28:20;-3.80;99.90
8172;DHT22;4127;47.908;10.850;2024-01-11T11:31:11;-4.00;99.90
8172;DHT22;4127;47.908;10.850;2024-01-11T11:33:40;-3.80;99.90
8172;DHT22;4127;47.908;10.850;2024-01-11T11:36:12;-3.90;99.90
8172;DHT22;4127;47.908;10.850;2024-01-11T11:38:40;-4.00;99.90
8172;DHT22;4127;47.908;10.850;2024-01-11T11:41:08;-4.20;99.90
8172;DHT22;4127;47.908;10.850;2024-01-11T11:43:36;-3.80;99.90
8172;DHT22;4127;47.908;10.850;2024-01-11T11:46:03;-3.70;99.90
8172;DHT22;4127;47.908;10.850;2024-01-11T11:51:19;-3.50;99.90
8172;DHT22;4127;47.908;10.850;2024-01-11T11:53:50;-3.20;99.90
8172;DHT22;4127;47.908;10.850;2024-01-11T11:56:21;-3.40;99.90
8172;DHT22;4127;47.908;10.850;2024-01-11T11:58:49;-3.00;99.90
8172;DHT22;4127;47.908;10.850;2024-01-11T12:01:18;-2.50;99.90
8172;DHT22;4127;47.908;10.850;2024-01-11T12:03:46;-2.70;99.90
8172;DHT22;4127;47.908;10.850;2024-01-11T12:06:18;-2.80;99.90
8172;DHT22;4127;47.908;10.850;2024-01-11T12:08:47;-3.00;99.90
8172;DHT22;4127;47.908;10.850;2024-01-11T12:11:18;-3.40;99.90
8172;DHT22;4127;47.908;10.850;2024-01-11T12:13:50;-3.60;99.90
8172;DHT22;4127;47.908;10.850;2024-01-11T12:16:17;-3.90;99.90
8172;DHT22;4127;47.908;10.850;2024-01-11T12:18:49;-4.20;99.90
8172;DHT22;4127;47.908;10.850;2024-01-11T12:21:20;-3.90;99.90
8172;DHT22;4127;47.908;10.850;2024-01-11T12:23:47;-3.90;99.90
8172;DHT22;4127;47.908;10.850;2024-01-11T12:26:16;-3.50;99.90
8172;DHT22;4127;47.908;10.850;2024-01-11T12:28:50;-3.60;99.90
8172;DHT22;4127;47.908;10.850;2024-01-11T12:31:17;-3.70;99.90
8172;DHT22;4127;47.908;10.850;2024-01-11T12:33:48;-3.30;99.90
8172;DHT22;4127;47.908;10.850;2024-01-11T12:36:16;-3.10;99.90
8172;DHT22;4127;47.908;10.850;2024-01-11T12:38:47;-3.40;99.90
8172;DHT22;4127;47.908;10.850;2024-01-11T12:41:33;-3.50;99.90
8172;DHT22;4127;47.908;10.850;2024-01-11T12:44:01;-3.50;99.90
8172;DHT22;4127;47.908;10.850;2024-01-11T12:46:28;-3.30;99.90
8172;DHT22;4127;47.908;10.850;2024-01-11T12:48:56;-3.40;99.90
8172;DHT22;4127;47.908;10.850;2024-01-11T12:51:26;-3.10;99.90
8172;DHT22;4127;47.908;10.850;2024-01-11T12:53:53;-2.90;99.90
8172;DHT22;4127;47.908;10.850;2024-01-11T12:56:21;-2.60;99.90
8172;DHT22;4127;47.908;10.850;2024-01-11T12:58:50;-2.10;99.90
8172;DHT22;4127;47.908;10.850;2024-01-11T13:01:17;-2.00;99.90
8172;DHT22;4127;47.908;10.850;2024-01-11T13:03:45;-1.80;99.90
8172;DHT22;4127;47.908;10.850;2024-01-11T13:06:19;-1.70;99.90
8172;DHT22;4127;47.908;10.850;2024-01-11T13:08:46;-1.50;99.90
8172;DHT22;4127;47.908;10.850;2024-01-11T13:11:17;-1.60;99.90
8172;DHT22;4127;47.908;10.850;2024-01-11T13:13:44;-1.50;99.90
8172;DHT22;4127;47.908;10.850;2024-01-11T13:16:15;-1.40;99.90
8172;DHT22;4127;47.908;10.850;2024-01-11T13:18:51;-1.60;99.90
8172;DHT22;4127;47.908;10.850;2024-01-11T13:21:19;-1.50;99.90
8172;DHT22;4127;47.908;10.850;2024-01-11T13:23:47;-1.40;99.90
8172;DHT22;4127;47.908;10.850;2024-01-11T13:26:24;-1.30;99.90
8172;DHT22;4127;47.908;10.850;2024-01-11T13:28:51;-1.40;99.90
8172;DHT22;4127;47.908;10.850;2024-01-11T13:31:22;-1.80;99.90
8172;DHT22;4127;47.908;10.850;2024-01-11T13:33:52;-2.90;99.90
8172;DHT22;4127;47.908;10.850;2024-01-11T13:36:19;-3.20;99.90
8172;DHT22;4127;47.908;10.850;2024-01-11T13:38:47;-3.10;99.90
8172;DHT22;4127;47.908;10.850;2024-01-11T13:41:22;-2.90;99.90
8172;DHT22;4127;47.908;10.850;2024-01-11T13:43:49;-2.70;99.90
8172;DHT22;4127;47.908;10.850;2024-01-11T13:46:16;-2.40;99.90
8172;DHT22;4127;47.908;10.850;2024-01-11T13:48:49;-2.20;99.90
8172;DHT22;4127;47.908;10.850;2024-01-11T13:51:16;-2.10;99.90
8172;DHT22;4127;47.908;10.850;2024-01-11T13:53:47;-2.10;99.90
8172;DHT22;4127;47.908;10.850;2024-01-11T13:56:14;-1.90;99.90
8172;DHT22;4127;47.908;10.850;2024-01-11T13:58:45;-2.20;99.90
8172;DHT22;4127;47.908;10.850;2024-01-11T14:01:13;-2.10;99.90
8172;DHT22;4127;47.908;10.850;2024-01-11T14:03:44;-2.10;99.90
8172;DHT22;4127;47.908;10.850;2024-01-11T14:06:14;-2.10;99.90
8172;DHT22;4127;47.908;10.850;2024-01-11T14:08:41;-2.10;99.90
8172;DHT22;4127;47.908;10.850;2024-01-11T14:11:09;-1.90;99.90
8172;DHT22;4127;47.908;10.850;2024-01-11T14:13:35;-1.80;99.90
8172;DHT22;4127;47.908;10.850;2024-01-11T14:16:03;-1.90;99.90
8172;DHT22;4127;47.908;10.850;2024-01-11T14:18:43;-1.90;99.90
8172;DHT22;4127;47.908;10.850;2024-01-11T14:21:11;-1.80;99.90
8172;DHT22;4127;47.908;10.850;2024-01-11T14:23:43;-2.00;99.90
8172;DHT22;4127;47.908;10.850;2024-01-11T14:26:11;-2.10;99.90
8172;DHT22;4127;47.908;10.850;2024-01-11T14:28:39;-2.30;99.90
8172;DHT22;4127;47.908;10.850;2024-01-11T14:31:09;-2.60;99.90
8172;DHT22;4127;47.908;10.850;2024-01-11T14:33:38;-3.10;99.90
8172;DHT22;4127;47.908;10.850;2024-01-11T14:36:06;-3.30;99.90
8172;DHT22;4127;47.908;10.850;2024-01-11T14:38:33;-3.60;99.90
8172;DHT22;4127;47.908;10.850;2024-01-11T14:41:00;-3.70;99.90
8172;DHT22;4127;47.908;10.850;2024-01-11T14:43:27;-3.40;99.90
8172;DHT22;4127;47.908;10.850;2024-01-11T14:45:57;-3.60;99.90
8172;DHT22;4127;47.908;10.850;2024-01-11T14:48:24;-3.90;99.90
8172;DHT22;4127;47.908;10.850;2024-01-11T14:50:52;-4.10;99.90
8172;DHT22;4127;47.908;10.850;2024-01-11T14:53:20;-3.90;99.90
8172;DHT22;4127;47.908;10.850;2024-01-11T14:55:51;-3.80;99.90
8172;DHT22;4127;47.908;10.850;2024-01-11T14:58:18;-3.90;99.90
8172;DHT22;4127;47.908;10.850;2024-01-11T15:00:48;-4.00;99.90
8172;DHT22;4127;47.908;10.850;2024-01-11T15:03:15;-4.20;99.90
8172;DHT22;4127;47.908;10.850;2024-01-11T15:05:43;-4.10;99.90
8172;DHT22;4127;47.908;10.850;2024-01-11T15:08:10;-4.10;99.90
8172;DHT22;4127;47.908;10.850;2024-01-11T15:10:38;-4.20;99.90
8172;DHT22;4127;47.908;10.850;2024-01-11T15:13:05;-4.10;99.90
8172;DHT22;4127;47.908;10.850;2024-01-11T15:15:32;-4.10;99.90
8172;DHT22;4127;47.908;10.850;2024-01-11T15:18:02;-4.00;99.90
8172;DHT22;4127;47.908;10.850;2024-01-11T15:20:46;-4.00;99.90
8172;DHT22;4127;47.908;10.850;2024-01-11T15:23:16;-4.20;99.90
8172;DHT22;4127;47.908;10.850;2024-01-11T15:25:43;-4.10;99.90
8172;DHT22;4127;47.908;10.850;2024-01-11T15:28:13;-4.00;99.90
8172;DHT22;4127;47.908;10.850;2024-01-11T15:30:43;-4.10;99.90
8172;DHT22;4127;47.908;10.850;2024-01-11T15:33:12;-4.20;99.90
8172;DHT22;4127;47.908;10.850;2024-01-11T15:35:41;-4.40;99.90
8172;DHT22;4127;47.908;10.850;2024-01-11T15:38:09;-4.30;99.90
8172;DHT22;4127;47.908;10.850;2024-01-11T15:40:36;-4.00;99.90
8172;DHT22;4127;47.908;10.850;2024-01-11T15:43:03;-3.80;99.90
8172;DHT22;4127;47.908;10.850;2024-01-11T15:45:33;-3.60;99.90
8172;DHT22;4127;47.908;10.850;2024-01-11T15:48:01;-3.50;99.90
8172;DHT22;4127;47.908;10.850;2024-01-11T15:50:31;-3.70;99.90
8172;DHT22;4127;47.908;10.850;2024-01-11T15:52:58;-4.30;99.90
8172;DHT22;4127;47.908;10.850;2024-01-11T15:55:25;-4.40;99.90
8172;DHT22;4127;47.908;10.850;2024-01-11T15:57:52;-4.50;99.90
8172;DHT22;4127;47.908;10.850;2024-01-11T16:00:21;-4.50;99.90